sensor_id;sensor_type;location;lat;lon;timestamp;pressure;altitude;pressure_sealevel;temperature;humidity
22872;BME280;11603;44.910;8.630;2023-04-27T00:02:07;100515.06;;;14.53;100.00
22872;BME280;11603;44.910;8.630;2023-04-27T00:04:33;100517.28;;;14.48;100.00
22872;BME280;11603;44.910;8.630;2023-04-27T00:06:58;100513.13;;;14.44;100.00
22872;BME280;11603;44.910;8.630;2023-04-27T00:09:24;100513.25;;;14.43;100.00
22872;BME280;11603;44.910;8.630;2023-04-27T00:11:50;100517.88;;;14.40;100.00
22872;BME280;11603;44.910;8.630;2023-04-27T00:14:15;100514.81;;;14.34;100.00
22872;BME280;11603;44.910;8.630;2023-04-27T00:16:41;100516.97;;;14.29;100.00
22872;BME280;11603;44.910;8.630;2023-04-27T00:19:06;100525.16;;;14.16;100.00
22872;BME280;11603;44.910;8.630;2023-04-27T00:21:33;100513.03;;;14.11;100.00
22872;BME280;11603;44.910;8.630;2023-04-27T00:23:59;100508.75;;;14.08;100.00
22872;BME280;11603;44.910;8.630;2023-04-27T00:26:24;100512.03;;;14.00;100.00
22872;BME280;11603;44.910;8.630;2023-04-27T00:28:51;100505.41;;;13.93;100.00
22872;BME280;11603;44.910;8.630;2023-04-27T00:31:17;100503.66;;;13.70;100.00
22872;BME280;11603;44.910;8.630;2023-04-27T00:33:43;100504.63;;;13.69;100.00
22872;BME280;11603;44.910;8.630;2023-04-27T00:36:08;100505.94;;;13.64;100.00
22872;BME280;11603;44.910;8.630;2023-04-27T00:38:34;100504.59;;;13.58;100.00
22872;BME280;11603;44.910;8.630;2023-04-27T00:41:01;100515.28;;;13.47;100.00
22872;BME280;11603;44.910;8.630;2023-04-27T00:43:26;100505.00;;;13.41;100.00
22872;BME280;11603;44.910;8.630;2023-04-27T00:45:53;100505.69;;;13.32;100.00
22872;BME280;11603;44.910;8.630;2023-04-27T00:48:18;100504.94;;;13.30;100.00
22872;BME280;11603;44.910;8.630;2023-04-27T00:50:44;100505.19;;;13.27;100.00
22872;BME280;11603;44.910;8.630;2023-04-27T00:53:11;100501.13;;;13.21;100.00
22872;BME280;11603;44.910;8.630;2023-04-27T00:55:36;100513.16;;;13.15;100.00
22872;BME280;11603;44.910;8.630;2023-04-27T00:58:02;100509.53;;;13.17;100.00
22872;BME280;11603;44.910;8.630;2023-04-27T01:00:27;100507.78;;;13.15;100.00
22872;BME280;11603;44.910;8.630;2023-04-27T01:02:53;100510.50;;;13.15;100.00
22872;BME280;11603;44.910;8.630;2023-04-27T01:05:19;100509.06;;;13.10;100.00
22872;BME280;11603;44.910;8.630;2023-04-27T01:07:48;100516.41;;;13.08;100.00
22872;BME280;11603;44.910;8.630;2023-04-27T01:10:14;100512.00;;;13.07;100.00
22872;BME280;11603;44.910;8.630;2023-04-27T01:12:40;100509.41;;;13.05;100.00
22872;BME280;11603;44.910;8.630;2023-04-27T01:15:06;100513.31;;;13.01;100.00
22872;BME280;11603;44.910;8.630;2023-04-27T01:17:32;100520.94;;;12.95;100.00
22872;BME280;11603;44.910;8.630;2023-04-27T01:19:57;100512.09;;;12.82;100.00
22872;BME280;11603;44.910;8.630;2023-04-27T01:22:23;100508.22;;;12.73;100.00
22872;BME280;11603;44.910;8.630;2023-04-27T01:24:51;100507.84;;;12.66;100.00
22872;BME280;11603;44.910;8.630;2023-04-27T01:27:18;100504.81;;;12.58;100.00
22872;BME280;11603;44.910;8.630;2023-04-27T01:29:43;100513.72;;;12.59;100.00
22872;BME280;11603;44.910;8.630;2023-04-27T01:32:09;100508.59;;;12.56;100.00
22872;BME280;11603;44.910;8.630;2023-04-27T01:34:34;100505.78;;;12.57;100.00
22872;BME280;11603;44.910;8.630;2023-04-27T01:37:00;100509.66;;;12.53;100.00
22872;BME280;11603;44.910;8.630;2023-04-27T01:39:25;100511.28;;;12.56;100.00
22872;BME280;11603;44.910;8.630;2023-04-27T01:41:51;100515.78;;;12.55;100.00
22872;BME280;11603;44.910;8.630;2023-04-27T01:44:17;100519.34;;;12.56;100.00
22872;BME280;11603;44.910;8.630;2023-04-27T01:46:43;100510.00;;;12.49;100.00
22872;BME280;11603;44.910;8.630;2023-04-27T01:49:08;100521.50;;;12.51;100.00
22872;BME280;11603;44.910;8.630;2023-04-27T01:51:34;100528.22;;;12.56;100.00
22872;BME280;11603;44.910;8.630;2023-04-27T01:53:59;100531.66;;;12.58;100.00
22872;BME280;11603;44.910;8.630;2023-04-27T01:56:25;100533.16;;;12.62;100.00
22872;BME280;11603;44.910;8.630;2023-04-27T01:58:52;100531.66;;;12.71;100.00
22872;BME280;11603;44.910;8.630;2023-04-27T02:01:18;100531.41;;;12.74;100.00
22872;BME280;11603;44.910;8.630;2023-04-27T02:03:43;100537.41;;;12.78;100.00
22872;BME280;11603;44.910;8.630;2023-04-27T02:06:11;100537.09;;;12.82;100.00
22872;BME280;11603;44.910;8.630;2023-04-27T02:08:38;100542.13;;;12.87;100.00
22872;BME280;11603;44.910;8.630;2023-04-27T02:11:03;100543.81;;;12.88;100.00
22872;BME280;11603;44.910;8.630;2023-04-27T02:13:28;100532.38;;;12.86;100.00
22872;BME280;11603;44.910;8.630;2023-04-27T02:15:54;100538.28;;;12.78;100.00
22872;BME280;11603;44.910;8.630;2023-04-27T02:18:20;100537.66;;;12.62;100.00
22872;BME280;11603;44.910;8.630;2023-04-27T02:20:46;100534.13;;;12.49;100.00
22872;BME280;11603;44.910;8.630;2023-04-27T02:23:11;100543.19;;;12.35;100.00
22872;BME280;11603;44.910;8.630;2023-04-27T02:25:37;100544.66;;;12.26;100.00
22872;BME280;11603;44.910;8.630;2023-04-27T02:28:03;100544.75;;;12.12;100.00
22872;BME280;11603;44.910;8.630;2023-04-27T02:30:29;100547.84;;;11.94;100.00
22872;BME280;11603;44.910;8.630;2023-04-27T02:32:58;100561.41;;;11.78;100.00
22872;BME280;11603;44.910;8.630;2023-04-27T02:35:24;100566.19;;;11.60;100.00
22872;BME280;11603;44.910;8.630;2023-04-27T02:37:50;100561.22;;;11.54;100.00
22872;BME280;11603;44.910;8.630;2023-04-27T02:40:15;100560.38;;;11.54;100.00
22872;BME280;11603;44.910;8.630;2023-04-27T02:42:41;100560.81;;;11.60;100.00
22872;BME280;11603;44.910;8.630;2023-04-27T02:45:09;100562.09;;;11.67;100.00
22872;BME280;11603;44.910;8.630;2023-04-27T02:47:35;100556.38;;;11.73;100.00
22872;BME280;11603;44.910;8.630;2023-04-27T02:50:01;100566.03;;;11.76;100.00
22872;BME280;11603;44.910;8.630;2023-04-27T02:52:27;100568.25;;;11.69;100.00
22872;BME280;11603;44.910;8.630;2023-04-27T02:54:52;100572.09;;;11.65;100.00
22872;BME280;11603;44.910;8.630;2023-04-27T02:57:18;100567.13;;;11.59;100.00
22872;BME280;11603;44.910;8.630;2023-04-27T02:59:43;100574.22;;;11.60;100.00
22872;BME280;11603;44.910;8.630;2023-04-27T03:02:09;100582.16;;;11.62;100.00
22872;BME280;11603;44.910;8.630;2023-04-27T03:04:34;100577.44;;;11.65;100.00
22872;BME280;11603;44.910;8.630;2023-04-27T03:07:02;100585.16;;;11.70;100.00
22872;BME280;11603;44.910;8.630;2023-04-27T03:09:29;100583.16;;;11.73;100.00
22872;BME280;11603;44.910;8.630;2023-04-27T03:11:56;100580.41;;;11.75;100.00
22872;BME280;11603;44.910;8.630;2023-04-27T03:14:21;100583.06;;;11.75;100.00
22872;BME280;11603;44.910;8.630;2023-04-27T03:16:47;100577.00;;;11.59;100.00
22872;BME280;11603;44.910;8.630;2023-04-27T03:19:13;100582.97;;;11.50;100.00
22872;BME280;11603;44.910;8.630;2023-04-27T03:21:38;100591.69;;;11.39;100.00
22872;BME280;11603;44.910;8.630;2023-04-27T03:24:04;100593.91;;;11.32;100.00
22872;BME280;11603;44.910;8.630;2023-04-27T03:26:30;100592.19;;;11.31;100.00
22872;BME280;11603;44.910;8.630;2023-04-27T03:28:56;100582.94;;;11.23;100.00
22872;BME280;11603;44.910;8.630;2023-04-27T03:31:21;100581.22;;;11.22;100.00
22872;BME280;11603;44.910;8.630;2023-04-27T03:33:47;100587.44;;;11.22;100.00
22872;BME280;11603;44.910;8.630;2023-04-27T03:36:13;100585.28;;;11.15;100.00
22872;BME280;11603;44.910;8.630;2023-04-27T03:38:40;100581.91;;;11.11;100.00
22872;BME280;11603;44.910;8.630;2023-04-27T03:41:07;100582.38;;;11.18;100.00
22872;BME280;11603;44.910;8.630;2023-04-27T03:43:34;100594.59;;;11.22;100.00
22872;BME280;11603;44.910;8.630;2023-04-27T03:46:01;100594.22;;;11.28;100.00
22872;BME280;11603;44.910;8.630;2023-04-27T03:48:26;100601.09;;;11.32;100.00
22872;BME280;11603;44.910;8.630;2023-04-27T03:50:53;100593.06;;;11.32;100.00
22872;BME280;11603;44.910;8.630;2023-04-27T03:53:19;100601.00;;;11.33;100.00
22872;BME280;11603;44.910;8.630;2023-04-27T03:55:44;100600.13;;;11.33;100.00
22872;BME280;11603;44.910;8.630;2023-04-27T03:58:11;100602.50;;;11.37;100.00
22872;BME280;11603;44.910;8.630;2023-04-27T04:00:44;100601.47;;;11.40;100.00
22872;BME280;11603;44.910;8.630;2023-04-27T04:03:10;100607.56;;;11.42;100.00
22872;BME280;11603;44.910;8.630;2023-04-27T04:05:36;100618.75;;;11.48;100.00
22872;BME280;11603;44.910;8.630;2023-04-27T04:08:03;100614.34;;;11.47;100.00
22872;BME280;11603;44.910;8.630;2023-04-27T04:10:29;100623.88;;;11.52;100.00
22872;BME280;11603;44.910;8.630;2023-04-27T04:12:54;100630.25;;;11.36;100.00
22872;BME280;11603;44.910;8.630;2023-04-27T04:15:20;100625.44;;;11.41;100.00
22872;BME280;11603;44.910;8.630;2023-04-27T04:17:48;100625.91;;;11.48;100.00
22872;BME280;11603;44.910;8.630;2023-04-27T04:20:14;100630.66;;;11.57;100.00
22872;BME280;11603;44.910;8.630;2023-04-27T04:22:40;100631.19;;;11.50;100.00
22872;BME280;11603;44.910;8.630;2023-04-27T04:25:06;100632.22;;;11.47;100.00
22872;BME280;11603;44.910;8.630;2023-04-27T04:27:32;100638.84;;;11.41;100.00
22872;BME280;11603;44.910;8.630;2023-04-27T04:29:58;100648.34;;;11.33;100.00
22872;BME280;11603;44.910;8.630;2023-04-27T04:32:29;100647.28;;;11.35;100.00
22872;BME280;11603;44.910;8.630;2023-04-27T04:34:56;100649.41;;;11.30;100.00
22872;BME280;11603;44.910;8.630;2023-04-27T04:37:22;100654.34;;;11.36;100.00
22872;BME280;11603;44.910;8.630;2023-04-27T04:39:49;100654.28;;;11.24;100.00
22872;BME280;11603;44.910;8.630;2023-04-27T04:42:14;100653.50;;;11.22;100.00
22872;BME280;11603;44.910;8.630;2023-04-27T04:44:41;100658.34;;;11.43;100.00
22872;BME280;11603;44.910;8.630;2023-04-27T04:47:07;100662.00;;;11.83;100.00
22872;BME280;11603;44.910;8.630;2023-04-27T04:49:34;100653.94;;;12.10;100.00
22872;BME280;11603;44.910;8.630;2023-04-27T04:52:00;100660.38;;;12.20;100.00
22872;BME280;11603;44.910;8.630;2023-04-27T04:54:25;100659.66;;;12.31;100.00
22872;BME280;11603;44.910;8.630;2023-04-27T04:56:53;100660.34;;;12.60;100.00
22872;BME280;11603;44.910;8.630;2023-04-27T04:59:19;100661.66;;;12.92;100.00
22872;BME280;11603;44.910;8.630;2023-04-27T05:01:44;100659.16;;;13.14;100.00
22872;BME280;11603;44.910;8.630;2023-04-27T05:04:10;100665.06;;;13.32;100.00
22872;BME280;11603;44.910;8.630;2023-04-27T05:06:36;100668.59;;;13.33;100.00
22872;BME280;11603;44.910;8.630;2023-04-27T05:09:01;100676.56;;;13.34;100.00
22872;BME280;11603;44.910;8.630;2023-04-27T05:11:26;100674.22;;;13.17;100.00
22872;BME280;11603;44.910;8.630;2023-04-27T05:13:52;100683.56;;;12.86;100.00
22872;BME280;11603;44.910;8.630;2023-04-27T05:16:17;100681.69;;;12.61;100.00
22872;BME280;11603;44.910;8.630;2023-04-27T05:18:43;100688.38;;;12.56;100.00
22872;BME280;11603;44.910;8.630;2023-04-27T05:21:17;100684.28;;;12.63;100.00
22872;BME280;11603;44.910;8.630;2023-04-27T05:23:45;100682.91;;;12.70;100.00
22872;BME280;11603;44.910;8.630;2023-04-27T05:26:14;100687.09;;;12.74;100.00
22872;BME280;11603;44.910;8.630;2023-04-27T05:28:41;100693.06;;;12.52;100.00
22872;BME280;11603;44.910;8.630;2023-04-27T05:31:07;100702.03;;;12.26;100.00
22872;BME280;11603;44.910;8.630;2023-04-27T05:33:32;100698.47;;;12.25;100.00
22872;BME280;11603;44.910;8.630;2023-04-27T05:35:58;100700.84;;;12.17;100.00
22872;BME280;11603;44.910;8.630;2023-04-27T05:38:24;100707.53;;;12.24;100.00
22872;BME280;11603;44.910;8.630;2023-04-27T05:40:54;100705.47;;;12.28;100.00
22872;BME280;11603;44.910;8.630;2023-04-27T05:43:22;100709.91;;;12.42;100.00
22872;BME280;11603;44.910;8.630;2023-04-27T05:45:49;100708.72;;;12.46;100.00
22872;BME280;11603;44.910;8.630;2023-04-27T05:48:15;100708.94;;;12.43;100.00
22872;BME280;11603;44.910;8.630;2023-04-27T05:50:41;100711.84;;;12.52;100.00
22872;BME280;11603;44.910;8.630;2023-04-27T05:53:09;100706.84;;;12.73;100.00
22872;BME280;11603;44.910;8.630;2023-04-27T05:55:34;100708.56;;;12.87;100.00
22872;BME280;11603;44.910;8.630;2023-04-27T05:58:01;100717.47;;;12.74;100.00
22872;BME280;11603;44.910;8.630;2023-04-27T06:00:28;100720.28;;;12.86;100.00
22872;BME280;11603;44.910;8.630;2023-04-27T06:02:53;100717.06;;;12.81;100.00
22872;BME280;11603;44.910;8.630;2023-04-27T06:05:22;100716.84;;;12.96;100.00
22872;BME280;11603;44.910;8.630;2023-04-27T06:07:49;100724.72;;;13.12;100.00
22872;BME280;11603;44.910;8.630;2023-04-27T06:10:14;100718.59;;;13.23;100.00
22872;BME280;11603;44.910;8.630;2023-04-27T06:12:40;100732.13;;;13.34;100.00
22872;BME280;11603;44.910;8.630;2023-04-27T06:15:07;100727.03;;;13.42;100.00
22872;BME280;11603;44.910;8.630;2023-04-27T06:17:35;100731.22;;;13.46;100.00
22872;BME280;11603;44.910;8.630;2023-04-27T06:20:01;100725.94;;;13.57;100.00
22872;BME280;11603;44.910;8.630;2023-04-27T06:22:26;100729.81;;;13.66;100.00
22872;BME280;11603;44.910;8.630;2023-04-27T06:24:54;100736.53;;;13.71;100.00
22872;BME280;11603;44.910;8.630;2023-04-27T06:27:19;100739.78;;;13.76;100.00
22872;BME280;11603;44.910;8.630;2023-04-27T06:29:44;100740.50;;;13.78;100.00
22872;BME280;11603;44.910;8.630;2023-04-27T06:32:10;100741.91;;;13.71;100.00
22872;BME280;11603;44.910;8.630;2023-04-27T06:34:36;100739.00;;;13.74;100.00
22872;BME280;11603;44.910;8.630;2023-04-27T06:37:01;100742.50;;;13.87;100.00
22872;BME280;11603;44.910;8.630;2023-04-27T06:39:27;100743.69;;;13.96;100.00
22872;BME280;11603;44.910;8.630;2023-04-27T06:41:52;100751.94;;;14.06;100.00
22872;BME280;11603;44.910;8.630;2023-04-27T06:44:18;100745.84;;;14.15;100.00
22872;BME280;11603;44.910;8.630;2023-04-27T06:46:45;100746.38;;;14.20;100.00
22872;BME280;11603;44.910;8.630;2023-04-27T06:49:11;100746.66;;;14.28;100.00
22872;BME280;11603;44.910;8.630;2023-04-27T06:51:36;100745.16;;;14.36;100.00
22872;BME280;11603;44.910;8.630;2023-04-27T06:54:02;100743.25;;;14.50;100.00
22872;BME280;11603;44.910;8.630;2023-04-27T06:56:28;100744.72;;;14.30;100.00
22872;BME280;11603;44.910;8.630;2023-04-27T06:58:53;100749.22;;;14.42;100.00
22872;BME280;11603;44.910;8.630;2023-04-27T07:01:19;100747.53;;;14.52;100.00
22872;BME280;11603;44.910;8.630;2023-04-27T07:03:44;100741.34;;;14.63;100.00
22872;BME280;11603;44.910;8.630;2023-04-27T07:06:10;100743.97;;;14.75;100.00
22872;BME280;11603;44.910;8.630;2023-04-27T07:08:35;100748.75;;;14.94;100.00
22872;BME280;11603;44.910;8.630;2023-04-27T07:11:01;100742.78;;;15.13;100.00
22872;BME280;11603;44.910;8.630;2023-04-27T07:13:28;100751.13;;;15.21;100.00
22872;BME280;11603;44.910;8.630;2023-04-27T07:15:54;100752.72;;;15.23;100.00
22872;BME280;11603;44.910;8.630;2023-04-27T07:18:23;100750.78;;;15.25;100.00
22872;BME280;11603;44.910;8.630;2023-04-27T07:20:48;100751.88;;;15.45;100.00
22872;BME280;11603;44.910;8.630;2023-04-27T07:23:14;100750.44;;;15.52;100.00
22872;BME280;11603;44.910;8.630;2023-04-27T07:25:40;100747.75;;;15.63;100.00
22872;BME280;11603;44.910;8.630;2023-04-27T07:28:06;100755.22;;;15.60;100.00
22872;BME280;11603;44.910;8.630;2023-04-27T07:30:31;100752.03;;;15.66;100.00
22872;BME280;11603;44.910;8.630;2023-04-27T07:33:00;100752.78;;;15.68;100.00
22872;BME280;11603;44.910;8.630;2023-04-27T07:35:26;100749.69;;;15.73;100.00
22872;BME280;11603;44.910;8.630;2023-04-27T07:37:51;100749.97;;;15.70;100.00
22872;BME280;11603;44.910;8.630;2023-04-27T07:40:17;100751.25;;;15.86;100.00
22872;BME280;11603;44.910;8.630;2023-04-27T07:42:43;100752.22;;;15.96;100.00
22872;BME280;11603;44.910;8.630;2023-04-27T07:45:10;100761.91;;;15.99;100.00
22872;BME280;11603;44.910;8.630;2023-04-27T07:47:37;100762.19;;;15.96;100.00
22872;BME280;11603;44.910;8.630;2023-04-27T07:50:05;100768.41;;;15.96;100.00
22872;BME280;11603;44.910;8.630;2023-04-27T07:52:31;100767.44;;;15.97;100.00
22872;BME280;11603;44.910;8.630;2023-04-27T07:54:57;100770.59;;;16.14;100.00
22872;BME280;11603;44.910;8.630;2023-04-27T07:57:22;100769.59;;;16.26;100.00
22872;BME280;11603;44.910;8.630;2023-04-27T07:59:48;100770.19;;;16.29;100.00
22872;BME280;11603;44.910;8.630;2023-04-27T08:02:13;100777.97;;;16.12;100.00
22872;BME280;11603;44.910;8.630;2023-04-27T08:04:39;100782.25;;;16.14;100.00
22872;BME280;11603;44.910;8.630;2023-04-27T08:07:05;100779.94;;;16.09;100.00
22872;BME280;11603;44.910;8.630;2023-04-27T08:09:30;100780.75;;;16.21;100.00
22872;BME280;11603;44.910;8.630;2023-04-27T08:11:59;100783.06;;;16.37;100.00
22872;BME280;11603;44.910;8.630;2023-04-27T08:14:24;100782.75;;;16.51;100.00
22872;BME280;11603;44.910;8.630;2023-04-27T08:16:50;100781.03;;;16.50;100.00
22872;BME280;11603;44.910;8.630;2023-04-27T08:19:16;100769.97;;;16.53;100.00
22872;BME280;11603;44.910;8.630;2023-04-27T08:21:42;100773.97;;;16.70;100.00
22872;BME280;11603;44.910;8.630;2023-04-27T08:24:08;100784.34;;;16.85;100.00
22872;BME280;11603;44.910;8.630;2023-04-27T08:26:34;100776.38;;;17.05;100.00
22872;BME280;11603;44.910;8.630;2023-04-27T08:29:01;100778.88;;;17.17;100.00
22872;BME280;11603;44.910;8.630;2023-04-27T08:31:27;100781.09;;;17.33;100.00
22872;BME280;11603;44.910;8.630;2023-04-27T08:33:56;100781.16;;;17.43;100.00
22872;BME280;11603;44.910;8.630;2023-04-27T08:36:23;100772.22;;;17.72;100.00
22872;BME280;11603;44.910;8.630;2023-04-27T08:38:51;100783.66;;;17.95;97.75
22872;BME280;11603;44.910;8.630;2023-04-27T08:41:21;100787.38;;;17.85;98.98
22872;BME280;11603;44.910;8.630;2023-04-27T08:43:48;100779.06;;;17.76;100.00
22872;BME280;11603;44.910;8.630;2023-04-27T08:46:18;100782.06;;;17.73;100.00
22872;BME280;11603;44.910;8.630;2023-04-27T08:48:45;100785.97;;;17.60;100.00
22872;BME280;11603;44.910;8.630;2023-04-27T08:51:13;100785.91;;;17.81;100.00
22872;BME280;11603;44.910;8.630;2023-04-27T08:53:50;100783.84;;;17.94;100.00
22872;BME280;11603;44.910;8.630;2023-04-27T08:56:20;100784.00;;;18.11;98.25
22872;BME280;11603;44.910;8.630;2023-04-27T08:58:50;100787.47;;;18.23;94.87
22872;BME280;11603;44.910;8.630;2023-04-27T09:01:16;100784.63;;;18.25;97.01
22872;BME280;11603;44.910;8.630;2023-04-27T09:03:42;100780.63;;;18.38;96.78
22872;BME280;11603;44.910;8.630;2023-04-27T09:06:11;100779.22;;;18.34;96.35
22872;BME280;11603;44.910;8.630;2023-04-27T09:11:05;100764.59;;;18.56;96.26
22872;BME280;11603;44.910;8.630;2023-04-27T09:13:38;100763.88;;;18.73;96.94
22872;BME280;11603;44.910;8.630;2023-04-27T09:16:04;100770.00;;;18.75;96.78
22872;BME280;11603;44.910;8.630;2023-04-27T09:18:33;100762.16;;;18.82;95.53
22872;BME280;11603;44.910;8.630;2023-04-27T09:21:00;100765.13;;;18.98;96.45
22872;BME280;11603;44.910;8.630;2023-04-27T09:23:33;100750.41;;;19.20;97.78
22872;BME280;11603;44.910;8.630;2023-04-27T09:26:01;100747.56;;;19.02;93.25
22872;BME280;11603;44.910;8.630;2023-04-27T09:28:29;100748.53;;;19.11;92.58
22872;BME280;11603;44.910;8.630;2023-04-27T09:30:59;100742.66;;;19.25;91.43
22872;BME280;11603;44.910;8.630;2023-04-27T09:35:52;100746.53;;;19.22;86.58
22872;BME280;11603;44.910;8.630;2023-04-27T09:38:20;100753.75;;;19.31;83.77
22872;BME280;11603;44.910;8.630;2023-04-27T09:40:47;100755.03;;;19.37;83.41
22872;BME280;11603;44.910;8.630;2023-04-27T09:43:13;100757.00;;;19.54;84.25
22872;BME280;11603;44.910;8.630;2023-04-27T09:45:38;100747.22;;;19.71;84.77
22872;BME280;11603;44.910;8.630;2023-04-27T09:48:08;100742.47;;;19.82;86.04
22872;BME280;11603;44.910;8.630;2023-04-27T09:50:35;100741.28;;;19.85;80.44
22872;BME280;11603;44.910;8.630;2023-04-27T09:53:02;100740.34;;;19.76;83.39
22872;BME280;11603;44.910;8.630;2023-04-27T09:55:35;100730.22;;;19.96;82.72
22872;BME280;11603;44.910;8.630;2023-04-27T10:01:08;100725.81;;;20.40;77.59
22872;BME280;11603;44.910;8.630;2023-04-27T10:04:11;100725.88;;;20.48;78.48
22872;BME280;11603;44.910;8.630;2023-04-27T10:06:57;100724.03;;;20.66;75.80
22872;BME280;11603;44.910;8.630;2023-04-27T10:09:23;100716.72;;;20.32;74.63
22872;BME280;11603;44.910;8.630;2023-04-27T10:11:51;100717.44;;;20.51;72.80
22872;BME280;11603;44.910;8.630;2023-04-27T10:14:21;100706.00;;;20.65;68.03
22872;BME280;11603;44.910;8.630;2023-04-27T10:16:56;100704.28;;;20.47;68.43
22872;BME280;11603;44.910;8.630;2023-04-27T10:19:23;100704.69;;;20.52;66.21
22872;BME280;11603;44.910;8.630;2023-04-27T10:21:57;100708.09;;;20.71;64.13
22872;BME280;11603;44.910;8.630;2023-04-27T10:24:41;100704.75;;;20.78;65.14
22872;BME280;11603;44.910;8.630;2023-04-27T10:27:10;100698.38;;;20.69;64.63
22872;BME280;11603;44.910;8.630;2023-04-27T10:29:44;100689.63;;;20.83;61.94
22872;BME280;11603;44.910;8.630;2023-04-27T10:32:12;100692.97;;;20.95;61.13
22872;BME280;11603;44.910;8.630;2023-04-27T10:34:39;100692.91;;;21.38;59.98
22872;BME280;11603;44.910;8.630;2023-04-27T10:37:09;100682.47;;;21.60;58.25
22872;BME280;11603;44.910;8.630;2023-04-27T10:39:43;100688.47;;;21.29;57.20
22872;BME280;11603;44.910;8.630;2023-04-27T10:42:09;100691.00;;;21.31;58.00
22872;BME280;11603;44.910;8.630;2023-04-27T10:44:35;100688.06;;;21.50;58.19
22872;BME280;11603;44.910;8.630;2023-04-27T10:47:12;100684.09;;;21.86;58.39
22872;BME280;11603;44.910;8.630;2023-04-27T10:49:38;100688.03;;;21.92;58.86
22872;BME280;11603;44.910;8.630;2023-04-27T10:52:04;100683.75;;;21.89;59.57
22872;BME280;11603;44.910;8.630;2023-04-27T10:54:31;100686.94;;;22.19;59.38
22872;BME280;11603;44.910;8.630;2023-04-27T10:57:03;100692.56;;;22.25;56.38
22872;BME280;11603;44.910;8.630;2023-04-27T10:59:29;100696.47;;;22.23;56.82
22872;BME280;11603;44.910;8.630;2023-04-27T11:01:55;100703.09;;;22.20;57.40
22872;BME280;11603;44.910;8.630;2023-04-27T11:04:21;100694.25;;;22.26;57.26
22872;BME280;11603;44.910;8.630;2023-04-27T11:06:46;100677.22;;;22.40;57.38
22872;BME280;11603;44.910;8.630;2023-04-27T11:09:13;100670.94;;;22.56;56.29
22872;BME280;11603;44.910;8.630;2023-04-27T11:11:43;100687.66;;;22.45;54.26
22872;BME280;11603;44.910;8.630;2023-04-27T11:14:13;100671.97;;;22.47;52.82
22872;BME280;11603;44.910;8.630;2023-04-27T11:16:45;100662.59;;;22.33;52.38
22872;BME280;11603;44.910;8.630;2023-04-27T11:19:10;100669.19;;;22.15;51.74
22872;BME280;11603;44.910;8.630;2023-04-27T11:21:36;100670.94;;;22.24;50.28
22872;BME280;11603;44.910;8.630;2023-04-27T11:24:03;100666.47;;;22.15;50.52
22872;BME280;11603;44.910;8.630;2023-04-27T11:26:29;100668.50;;;22.05;51.47
22872;BME280;11603;44.910;8.630;2023-04-27T11:29:08;100661.88;;;22.15;50.83
22872;BME280;11603;44.910;8.630;2023-04-27T11:31:49;100654.81;;;21.80;49.68
22872;BME280;11603;44.910;8.630;2023-04-27T11:34:20;100646.88;;;21.53;50.14
22872;BME280;11603;44.910;8.630;2023-04-27T11:39:26;100673.44;;;22.09;51.22
22872;BME280;11603;44.910;8.630;2023-04-27T11:41:53;100668.38;;;22.47;49.54
22872;BME280;11603;44.910;8.630;2023-04-27T11:44:24;100649.66;;;22.84;49.58
22872;BME280;11603;44.910;8.630;2023-04-27T11:46:50;100640.75;;;23.06;49.16
22872;BME280;11603;44.910;8.630;2023-04-27T11:49:17;100641.97;;;22.88;49.23
22872;BME280;11603;44.910;8.630;2023-04-27T11:51:44;100646.19;;;22.98;48.77
22872;BME280;11603;44.910;8.630;2023-04-27T11:54:10;100641.28;;;22.61;49.15
22872;BME280;11603;44.910;8.630;2023-04-27T11:56:38;100643.53;;;22.50;49.89
22872;BME280;11603;44.910;8.630;2023-04-27T11:59:05;100654.78;;;22.55;49.39
22872;BME280;11603;44.910;8.630;2023-04-27T12:01:33;100635.50;;;22.72;48.82
22872;BME280;11603;44.910;8.630;2023-04-27T12:04:00;100642.66;;;22.73;48.22
22872;BME280;11603;44.910;8.630;2023-04-27T12:06:27;100643.69;;;22.72;48.33
22872;BME280;11603;44.910;8.630;2023-04-27T12:08:56;100654.41;;;22.82;47.38
22872;BME280;11603;44.910;8.630;2023-04-27T12:11:23;100645.53;;;22.96;47.08
22872;BME280;11603;44.910;8.630;2023-04-27T12:13:49;100649.44;;;23.02;46.82
22872;BME280;11603;44.910;8.630;2023-04-27T12:16:15;100626.03;;;23.15;47.25
22872;BME280;11603;44.910;8.630;2023-04-27T12:18:40;100629.78;;;23.14;47.89
22872;BME280;11603;44.910;8.630;2023-04-27T12:21:06;100627.69;;;23.33;47.42
22872;BME280;11603;44.910;8.630;2023-04-27T12:23:32;100628.44;;;23.10;46.75
22872;BME280;11603;44.910;8.630;2023-04-27T12:25:58;100618.78;;;22.92;48.16
22872;BME280;11603;44.910;8.630;2023-04-27T12:28:23;100610.94;;;22.56;46.40
22872;BME280;11603;44.910;8.630;2023-04-27T12:30:49;100610.28;;;22.70;47.57
22872;BME280;11603;44.910;8.630;2023-04-27T12:33:15;100615.72;;;22.62;46.98
22872;BME280;11603;44.910;8.630;2023-04-27T12:35:41;100628.72;;;22.76;46.76
22872;BME280;11603;44.910;8.630;2023-04-27T12:38:07;100622.03;;;22.87;46.30
22872;BME280;11603;44.910;8.630;2023-04-27T12:40:32;100613.78;;;23.11;46.13
22872;BME280;11603;44.910;8.630;2023-04-27T12:42:58;100620.09;;;23.04;46.28
22872;BME280;11603;44.910;8.630;2023-04-27T12:45:24;100616.97;;;23.23;45.75
22872;BME280;11603;44.910;8.630;2023-04-27T12:47:49;100621.53;;;23.31;44.36
22872;BME280;11603;44.910;8.630;2023-04-27T12:50:15;100610.41;;;23.40;43.70
22872;BME280;11603;44.910;8.630;2023-04-27T12:52:41;100610.50;;;23.16;44.46